sensor_id;sensor_type;location;lat;lon;timestamp;pressure;altitude;pressure_sealevel;temperature;humidity
69630;BME280;56857;52.212;5.496;2023-08-30T00:01:10;100951.56;;;14.36;100.00
69630;BME280;56857;52.212;5.496;2023-08-30T00:03:35;100939.63;;;14.32;100.00
69630;BME280;56857;52.212;5.496;2023-08-30T00:06:04;100939.81;;;14.30;100.00
69630;BME280;56857;52.212;5.496;2023-08-30T00:08:31;100937.53;;;14.27;100.00
69630;BME280;56857;52.212;5.496;2023-08-30T00:10:56;100929.91;;;14.24;100.00
69630;BME280;56857;52.212;5.496;2023-08-30T00:13:22;100918.25;;;14.25;100.00
69630;BME280;56857;52.212;5.496;2023-08-30T00:15:47;100919.84;;;14.20;100.00
69630;BME280;56857;52.212;5.496;2023-08-30T00:18:12;100922.06;;;14.16;100.00
69630;BME280;56857;52.212;5.496;2023-08-30T00:20:38;100923.25;;;14.13;100.00
69630;BME280;56857;52.212;5.496;2023-08-30T00:23:03;100920.78;;;14.12;100.00
69630;BME280;56857;52.212;5.496;2023-08-30T00:25:28;100920.97;;;14.10;100.00
69630;BME280;56857;52.212;5.496;2023-08-30T00:27:53;100919.72;;;14.06;100.00
69630;BME280;56857;52.212;5.496;2023-08-30T00:30:19;100915.38;;;14.05;100.00
69630;BME280;56857;52.212;5.496;2023-08-30T00:32:44;100915.97;;;14.01;100.00
69630;BME280;56857;52.212;5.496;2023-08-30T00:35:10;100908.53;;;13.96;100.00
69630;BME280;56857;52.212;5.496;2023-08-30T00:37:35;100913.03;;;13.96;100.00
69630;BME280;56857;52.212;5.496;2023-08-30T00:40:00;100908.91;;;13.93;100.00
69630;BME280;56857;52.212;5.496;2023-08-30T00:42:26;100909.09;;;13.91;100.00
69630;BME280;56857;52.212;5.496;2023-08-30T00:44:51;100906.44;;;13.91;100.00
69630;BME280;56857;52.212;5.496;2023-08-30T00:47:16;100902.13;;;13.90;100.00
69630;BME280;56857;52.212;5.496;2023-08-30T00:49:42;100898.63;;;13.90;100.00
69630;BME280;56857;52.212;5.496;2023-08-30T00:52:09;100884.84;;;13.86;100.00
69630;BME280;56857;52.212;5.496;2023-08-30T00:54:36;100895.72;;;13.85;100.00
69630;BME280;56857;52.212;5.496;2023-08-30T00:57:02;100887.91;;;13.83;100.00
69630;BME280;56857;52.212;5.496;2023-08-30T00:59:28;100889.94;;;13.81;100.00
69630;BME280;56857;52.212;5.496;2023-08-30T01:01:55;100887.44;;;13.80;100.00
69630;BME280;56857;52.212;5.496;2023-08-30T01:04:20;100885.59;;;13.80;100.00
69630;BME280;56857;52.212;5.496;2023-08-30T01:06:46;100889.94;;;13.81;100.00
69630;BME280;56857;52.212;5.496;2023-08-30T01:09:11;100888.09;;;13.82;100.00
69630;BME280;56857;52.212;5.496;2023-08-30T01:11:45;100891.59;;;13.82;100.00
69630;BME280;56857;52.212;5.496;2023-08-30T01:14:14;100894.91;;;13.84;100.00
69630;BME280;56857;52.212;5.496;2023-08-30T01:16:41;100892.03;;;13.86;100.00
69630;BME280;56857;52.212;5.496;2023-08-30T01:19:39;100891.38;;;13.84;100.00
69630;BME280;56857;52.212;5.496;2023-08-30T01:27:48;100892.84;;;13.86;100.00
69630;BME280;56857;52.212;5.496;2023-08-30T01:30:16;100885.06;;;13.85;100.00
69630;BME280;56857;52.212;5.496;2023-08-30T01:32:42;100888.34;;;13.87;100.00
69630;BME280;56857;52.212;5.496;2023-08-30T01:35:10;100885.66;;;13.87;100.00
69630;BME280;56857;52.212;5.496;2023-08-30T01:37:35;100886.31;;;13.89;100.00
69630;BME280;56857;52.212;5.496;2023-08-30T01:40:03;100883.47;;;13.90;100.00
69630;BME280;56857;52.212;5.496;2023-08-30T01:42:29;100874.84;;;13.88;100.00
69630;BME280;56857;52.212;5.496;2023-08-30T01:44:56;100884.28;;;13.91;100.00
69630;BME280;56857;52.212;5.496;2023-08-30T01:47:25;100877.28;;;13.90;100.00
69630;BME280;56857;52.212;5.496;2023-08-30T01:49:53;100859.88;;;13.87;100.00
69630;BME280;56857;52.212;5.496;2023-08-30T01:52:19;100870.53;;;13.87;100.00
69630;BME280;56857;52.212;5.496;2023-08-30T01:54:46;100861.69;;;13.87;100.00
69630;BME280;56857;52.212;5.496;2023-08-30T01:57:12;100859.88;;;13.87;100.00
69630;BME280;56857;52.212;5.496;2023-08-30T01:59:38;100861.91;;;13.85;100.00
69630;BME280;56857;52.212;5.496;2023-08-30T02:02:03;100856.75;;;13.84;100.00
69630;BME280;56857;52.212;5.496;2023-08-30T02:04:29;100857.59;;;13.84;100.00
69630;BME280;56857;52.212;5.496;2023-08-30T02:06:57;100851.41;;;13.84;100.00
69630;BME280;56857;52.212;5.496;2023-08-30T02:12:17;100866.56;;;13.83;100.00
69630;BME280;56857;52.212;5.496;2023-08-30T02:14:46;100863.28;;;13.81;100.00
69630;BME280;56857;52.212;5.496;2023-08-30T02:17:14;100867.59;;;13.82;100.00
69630;BME280;56857;52.212;5.496;2023-08-30T02:19:40;100864.13;;;13.82;100.00
69630;BME280;56857;52.212;5.496;2023-08-30T02:22:05;100858.97;;;13.80;100.00
69630;BME280;56857;52.212;5.496;2023-08-30T02:24:31;100865.97;;;13.81;100.00
69630;BME280;56857;52.212;5.496;2023-08-30T02:26:56;100858.97;;;13.80;100.00
69630;BME280;56857;52.212;5.496;2023-08-30T02:29:21;100853.03;;;13.78;100.00
69630;BME280;56857;52.212;5.496;2023-08-30T02:31:47;100853.03;;;13.78;100.00
69630;BME280;56857;52.212;5.496;2023-08-30T02:34:12;100849.91;;;13.75;100.00
69630;BME280;56857;52.212;5.496;2023-08-30T02:36:37;100850.91;;;13.74;100.00
69630;BME280;56857;52.212;5.496;2023-08-30T02:39:03;100841.72;;;13.76;100.00
69630;BME280;56857;52.212;5.496;2023-08-30T02:41:28;100839.25;;;13.75;100.00
69630;BME280;56857;52.212;5.496;2023-08-30T02:43:53;100827.38;;;13.77;100.00
69630;BME280;56857;52.212;5.496;2023-08-30T02:46:19;100832.31;;;13.80;100.00
69630;BME280;56857;52.212;5.496;2023-08-30T02:48:44;100827.84;;;13.81;100.00
69630;BME280;56857;52.212;5.496;2023-08-30T02:51:09;100834.00;;;13.81;100.00
69630;BME280;56857;52.212;5.496;2023-08-30T02:53:35;100832.97;;;13.82;100.00
69630;BME280;56857;52.212;5.496;2023-08-30T02:56:00;100824.97;;;13.82;100.00
69630;BME280;56857;52.212;5.496;2023-08-30T02:58:25;100818.63;;;13.83;100.00
69630;BME280;56857;52.212;5.496;2023-08-30T03:00:52;100811.66;;;13.82;100.00
69630;BME280;56857;52.212;5.496;2023-08-30T03:03:18;100807.34;;;13.81;100.00
69630;BME280;56857;52.212;5.496;2023-08-30T03:05:44;100803.88;;;13.81;100.00
69630;BME280;56857;52.212;5.496;2023-08-30T03:08:09;100805.69;;;13.80;100.00
69630;BME280;56857;52.212;5.496;2023-08-30T03:10:34;100805.06;;;13.78;100.00
69630;BME280;56857;52.212;5.496;2023-08-30T03:13:00;100799.72;;;13.78;100.00
69630;BME280;56857;52.212;5.496;2023-08-30T03:15:25;100796.03;;;13.79;100.00
69630;BME280;56857;52.212;5.496;2023-08-30T03:17:50;100805.88;;;13.79;100.00
69630;BME280;56857;52.212;5.496;2023-08-30T03:20:16;100799.72;;;13.78;100.00
69630;BME280;56857;52.212;5.496;2023-08-30T03:22:41;100800.72;;;13.77;100.00
69630;BME280;56857;52.212;5.496;2023-08-30T03:25:07;100800.72;;;13.77;100.00
69630;BME280;56857;52.212;5.496;2023-08-30T03:27:32;100797.06;;;13.78;100.00
69630;BME280;56857;52.212;5.496;2023-08-30T03:29:58;100793.59;;;13.78;100.00
69630;BME280;56857;52.212;5.496;2023-08-30T03:32:23;100793.38;;;13.79;100.00
69630;BME280;56857;52.212;5.496;2023-08-30T03:34:48;100783.75;;;13.78;100.00
69630;BME280;56857;52.212;5.496;2023-08-30T03:37:14;100784.56;;;13.79;100.00
69630;BME280;56857;52.212;5.496;2023-08-30T03:39:40;100775.75;;;13.78;100.00
69630;BME280;56857;52.212;5.496;2023-08-30T03:42:06;100779.41;;;13.77;100.00
69630;BME280;56857;52.212;5.496;2023-08-30T03:44:31;100764.66;;;13.75;100.00
69630;BME280;56857;52.212;5.496;2023-08-30T03:46:56;100771.81;;;13.74;100.00
69630;BME280;56857;52.212;5.496;2023-08-30T03:49:22;100760.34;;;13.74;100.00
69630;BME280;56857;52.212;5.496;2023-08-30T03:51:47;100753.38;;;13.73;100.00
69630;BME280;56857;52.212;5.496;2023-08-30T03:54:13;100751.09;;;13.70;100.00
69630;BME280;56857;52.212;5.496;2023-08-30T03:56:38;100748.81;;;13.66;100.00
69630;BME280;56857;52.212;5.496;2023-08-30T03:59:03;100742.66;;;13.66;100.00
69630;BME280;56857;52.212;5.496;2023-08-30T04:01:28;100742.66;;;13.66;100.00
69630;BME280;56857;52.212;5.496;2023-08-30T04:03:54;100737.72;;;13.63;100.00
69630;BME280;56857;52.212;5.496;2023-08-30T04:06:19;100737.06;;;13.61;100.00
69630;BME280;56857;52.212;5.496;2023-08-30T04:08:44;100737.28;;;13.59;100.00
69630;BME280;56857;52.212;5.496;2023-08-30T04:11:10;100725.16;;;13.57;100.00
69630;BME280;56857;52.212;5.496;2023-08-30T04:13:35;100726.38;;;13.54;100.00
69630;BME280;56857;52.212;5.496;2023-08-30T04:16:00;100723.25;;;13.51;100.00
69630;BME280;56857;52.212;5.496;2023-08-30T04:18:26;100725.50;;;13.47;100.00
69630;BME280;56857;52.212;5.496;2023-08-30T04:20:51;100723.59;;;13.41;100.00
69630;BME280;56857;52.212;5.496;2023-08-30T04:23:16;100730.50;;;13.35;100.00
69630;BME280;56857;52.212;5.496;2023-08-30T04:25:42;100725.91;;;13.29;100.00
69630;BME280;56857;52.212;5.496;2023-08-30T04:28:09;100725.47;;;13.26;100.00
69630;BME280;56857;52.212;5.496;2023-08-30T04:30:36;100720.88;;;13.19;100.00
69630;BME280;56857;52.212;5.496;2023-08-30T04:33:01;100718.44;;;13.18;100.00
69630;BME280;56857;52.212;5.496;2023-08-30T04:35:27;100730.06;;;13.17;100.00
69630;BME280;56857;52.212;5.496;2023-08-30T04:37:52;100734.13;;;13.13;100.00
69630;BME280;56857;52.212;5.496;2023-08-30T04:40:17;100732.66;;;13.10;100.00
69630;BME280;56857;52.212;5.496;2023-08-30T04:42:43;100730.38;;;13.07;100.00
69630;BME280;56857;52.212;5.496;2023-08-30T04:45:08;100729.94;;;13.04;100.00
69630;BME280;56857;52.212;5.496;2023-08-30T04:47:33;100719.66;;;13.01;100.00
69630;BME280;56857;52.212;5.496;2023-08-30T04:49:59;100712.06;;;12.97;100.00
69630;BME280;56857;52.212;5.496;2023-08-30T04:52:25;100722.25;;;12.94;100.00
69630;BME280;56857;52.212;5.496;2023-08-30T04:54:50;100719.75;;;12.92;100.00
69630;BME280;56857;52.212;5.496;2023-08-30T04:57:16;100711.97;;;12.91;100.00
69630;BME280;56857;52.212;5.496;2023-08-30T04:59:43;100711.34;;;12.89;100.00
69630;BME280;56857;52.212;5.496;2023-08-30T05:02:08;100710.50;;;12.88;100.00
69630;BME280;56857;52.212;5.496;2023-08-30T05:04:34;100714.00;;;12.89;100.00
69630;BME280;56857;52.212;5.496;2023-08-30T05:06:59;100699.88;;;12.88;100.00
69630;BME280;56857;52.212;5.496;2023-08-30T05:09:25;100709.91;;;12.86;100.00
69630;BME280;56857;52.212;5.496;2023-08-30T05:11:53;100707.25;;;12.86;100.00
69630;BME280;56857;52.212;5.496;2023-08-30T05:14:18;100706.22;;;12.87;100.00
69630;BME280;56857;52.212;5.496;2023-08-30T05:16:44;100695.38;;;12.89;100.00
69630;BME280;56857;52.212;5.496;2023-08-30T05:19:09;100693.09;;;12.86;100.00
69630;BME280;56857;52.212;5.496;2023-08-30T05:21:34;100694.94;;;12.85;100.00
69630;BME280;56857;52.212;5.496;2023-08-30T05:24:00;100687.97;;;12.84;100.00
69630;BME280;56857;52.212;5.496;2023-08-30T05:26:25;100682.44;;;12.86;100.00
69630;BME280;56857;52.212;5.496;2023-08-30T05:28:50;100674.28;;;12.87;100.00
69630;BME280;56857;52.212;5.496;2023-08-30T05:31:16;100680.06;;;12.91;100.00
69630;BME280;56857;52.212;5.496;2023-08-30T05:33:41;100674.34;;;12.94;100.00
69630;BME280;56857;52.212;5.496;2023-08-30T05:36:06;100681.16;;;12.96;100.00
69630;BME280;56857;52.212;5.496;2023-08-30T05:38:31;100686.47;;;12.96;100.00
69630;BME280;56857;52.212;5.496;2023-08-30T05:40:57;100680.31;;;12.96;100.00
69630;BME280;56857;52.212;5.496;2023-08-30T05:43:22;100690.97;;;12.96;100.00
69630;BME280;56857;52.212;5.496;2023-08-30T05:45:47;100687.28;;;12.97;100.00
69630;BME280;56857;52.212;5.496;2023-08-30T05:48:13;100686.09;;;12.99;100.00
69630;BME280;56857;52.212;5.496;2023-08-30T05:50:38;100688.53;;;13.01;100.00
69630;BME280;56857;52.212;5.496;2023-08-30T05:53:03;100685.72;;;13.03;100.00
69630;BME280;56857;52.212;5.496;2023-08-30T05:55:28;100688.38;;;13.03;100.00
69630;BME280;56857;52.212;5.496;2023-08-30T05:57:54;100694.13;;;13.06;100.00
69630;BME280;56857;52.212;5.496;2023-08-30T06:00:19;100689.47;;;13.08;100.00
69630;BME280;56857;52.212;5.496;2023-08-30T06:02:44;100690.91;;;13.11;100.00
69630;BME280;56857;52.212;5.496;2023-08-30T06:05:11;100683.72;;;13.11;100.00
69630;BME280;56857;52.212;5.496;2023-08-30T06:07:36;100695.03;;;13.13;100.00
69630;BME280;56857;52.212;5.496;2023-08-30T06:10:02;100692.81;;;13.17;100.00
69630;BME280;56857;52.212;5.496;2023-08-30T06:12:27;100693.25;;;13.20;100.00
69630;BME280;56857;52.212;5.496;2023-08-30T06:14:53;100693.34;;;13.27;100.00
69630;BME280;56857;52.212;5.496;2023-08-30T06:17:19;100686.44;;;13.33;100.00
69630;BME280;56857;52.212;5.496;2023-08-30T06:19:45;100693.66;;;13.39;100.00
69630;BME280;56857;52.212;5.496;2023-08-30T06:22:11;100692.66;;;13.40;100.00
69630;BME280;56857;52.212;5.496;2023-08-30T06:24:36;100683.81;;;13.39;100.00
69630;BME280;56857;52.212;5.496;2023-08-30T06:27:01;100672.78;;;13.42;100.00
69630;BME280;56857;52.212;5.496;2023-08-30T06:29:26;100673.44;;;13.44;100.00
69630;BME280;56857;52.212;5.496;2023-08-30T06:31:52;100666.47;;;13.43;100.00
69630;BME280;56857;52.212;5.496;2023-08-30T06:34:17;100663.59;;;13.45;100.00
69630;BME280;56857;52.212;5.496;2023-08-30T06:36:42;100663.97;;;13.42;100.00
69630;BME280;56857;52.212;5.496;2023-08-30T06:39:08;100675.41;;;13.36;100.00
69630;BME280;56857;52.212;5.496;2023-08-30T06:41:33;100674.41;;;13.37;100.00
69630;BME280;56857;52.212;5.496;2023-08-30T06:43:58;100671.75;;;13.37;100.00
69630;BME280;56857;52.212;5.496;2023-08-30T06:46:23;100669.06;;;13.37;100.00
69630;BME280;56857;52.212;5.496;2023-08-30T06:48:49;100666.16;;;13.32;100.00
69630;BME280;56857;52.212;5.496;2023-08-30T06:51:33;100677.81;;;13.31;100.00
69630;BME280;56857;52.212;5.496;2023-08-30T06:54:19;100674.31;;;13.30;100.00
69630;BME280;56857;52.212;5.496;2023-08-30T06:57:04;100665.72;;;13.28;100.00
69630;BME280;56857;52.212;5.496;2023-08-30T06:59:50;100667.56;;;13.28;100.00
69630;BME280;56857;52.212;5.496;2023-08-30T07:02:37;100669.38;;;13.27;100.00
69630;BME280;56857;52.212;5.496;2023-08-30T07:05:23;100660.41;;;13.28;100.00
69630;BME280;56857;52.212;5.496;2023-08-30T07:08:08;100655.25;;;13.27;100.00
69630;BME280;56857;52.212;5.496;2023-08-30T07:10:55;100658.13;;;13.25;100.00
69630;BME280;56857;52.212;5.496;2023-08-30T07:13:41;100657.44;;;13.23;100.00
69630;BME280;56857;52.212;5.496;2023-08-30T07:16:27;100657.81;;;13.20;100.00
69630;BME280;56857;52.212;5.496;2023-08-30T07:19:12;100659.50;;;13.21;100.00
69630;BME280;56857;52.212;5.496;2023-08-30T07:21:58;100649.66;;;13.21;100.00
69630;BME280;56857;52.212;5.496;2023-08-30T07:24:44;100649.84;;;13.20;100.00
69630;BME280;56857;52.212;5.496;2023-08-30T07:27:30;100642.88;;;13.19;100.00
69630;BME280;56857;52.212;5.496;2023-08-30T07:30:15;100641.84;;;13.20;100.00
69630;BME280;56857;52.212;5.496;2023-08-30T07:33:01;100647.38;;;13.18;100.00
69630;BME280;56857;52.212;5.496;2023-08-30T07:35:47;100650.22;;;13.17;100.00
69630;BME280;56857;52.212;5.496;2023-08-30T07:38:32;100649.22;;;13.18;100.00
69630;BME280;56857;52.212;5.496;2023-08-30T07:41:18;100639.19;;;13.20;100.00
69630;BME280;56857;52.212;5.496;2023-08-30T07:44:04;100642.50;;;13.22;100.00
69630;BME280;56857;52.212;5.496;2023-08-30T07:46:49;100630.00;;;13.22;100.00
69630;BME280;56857;52.212;5.496;2023-08-30T07:49:35;100628.44;;;13.28;100.00
69630;BME280;56857;52.212;5.496;2023-08-30T07:52:21;100634.59;;;13.29;100.00
69630;BME280;56857;52.212;5.496;2023-08-30T07:55:07;100623.94;;;13.29;100.00
69630;BME280;56857;52.212;5.496;2023-08-30T07:57:52;100627.84;;;13.33;100.00
69630;BME280;56857;52.212;5.496;2023-08-30T08:00:38;100616.44;;;13.39;100.00
69630;BME280;56857;52.212;5.496;2023-08-30T08:03:24;100616.88;;;13.42;100.00
69630;BME280;56857;52.212;5.496;2023-08-30T08:06:09;100610.16;;;13.47;100.00
69630;BME280;56857;52.212;5.496;2023-08-30T08:08:55;100605.69;;;13.54;100.00
69630;BME280;56857;52.212;5.496;2023-08-30T08:11:40;100605.94;;;13.59;100.00
69630;BME280;56857;52.212;5.496;2023-08-30T08:14:26;100601.44;;;13.59;100.00
69630;BME280;56857;52.212;5.496;2023-08-30T08:17:12;100602.25;;;13.60;100.00
69630;BME280;56857;52.212;5.496;2023-08-30T08:19:57;100597.16;;;13.65;100.00
69630;BME280;56857;52.212;5.496;2023-08-30T08:22:43;100591.66;;;13.66;100.00
69630;BME280;56857;52.212;5.496;2023-08-30T08:25:29;100568.75;;;13.72;100.00
69630;BME280;56857;52.212;5.496;2023-08-30T08:28:14;100551.31;;;13.76;100.00
69630;BME280;56857;52.212;5.496;2023-08-30T08:31:00;100574.53;;;13.82;100.00
69630;BME280;56857;52.212;5.496;2023-08-30T08:33:46;100581.91;;;13.87;100.00
69630;BME280;56857;52.212;5.496;2023-08-30T08:36:31;100594.66;;;13.91;100.00
69630;BME280;56857;52.212;5.496;2023-08-30T08:39:17;100592.63;;;13.94;100.00
69630;BME280;56857;52.212;5.496;2023-08-30T08:42:03;100590.56;;;13.96;100.00
69630;BME280;56857;52.212;5.496;2023-08-30T08:44:54;100588.53;;;13.98;100.00
69630;BME280;56857;52.212;5.496;2023-08-30T08:47:42;100580.97;;;14.01;100.00
69630;BME280;56857;52.212;5.496;2023-08-30T08:50:32;100583.63;;;14.01;100.00
69630;BME280;56857;52.212;5.496;2023-08-30T08:53:17;100592.06;;;14.05;100.00
69630;BME280;56857;52.212;5.496;2023-08-30T08:56:04;100590.44;;;14.10;100.00
69630;BME280;56857;52.212;5.496;2023-08-30T08:58:50;100583.09;;;14.12;100.00
69630;BME280;56857;52.212;5.496;2023-08-30T09:01:36;100590.28;;;14.19;100.00
69630;BME280;56857;52.212;5.496;2023-08-30T09:04:23;100577.78;;;14.19;100.00
69630;BME280;56857;52.212;5.496;2023-08-30T09:07:09;100582.72;;;14.22;100.00
69630;BME280;56857;52.212;5.496;2023-08-30T09:09:55;100582.88;;;14.21;100.00
69630;BME280;56857;52.212;5.496;2023-08-30T09:12:40;100581.25;;;14.20;100.00
69630;BME280;56857;52.212;5.496;2023-08-30T09:15:33;100573.66;;;14.17;100.00
69630;BME280;56857;52.212;5.496;2023-08-30T09:18:19;100572.84;;;14.16;100.00
69630;BME280;56857;52.212;5.496;2023-08-30T09:20:44;100573.84;;;14.15;100.00
69630;BME280;56857;52.212;5.496;2023-08-30T09:23:17;100563.00;;;14.17;100.00
69630;BME280;56857;52.212;5.496;2023-08-30T09:25:44;100564.84;;;14.16;100.00
69630;BME280;56857;52.212;5.496;2023-08-30T09:28:09;100565.44;;;14.18;100.00
69630;BME280;56857;52.212;5.496;2023-08-30T09:30:35;100569.78;;;14.19;100.00
69630;BME280;56857;52.212;5.496;2023-08-30T09:33:01;100561.56;;;14.21;100.00
69630;BME280;56857;52.212;5.496;2023-08-30T09:35:26;100568.75;;;14.20;100.00
69630;BME280;56857;52.212;5.496;2023-08-30T09:37:52;100565.44;;;14.18;100.00
69630;BME280;56857;52.212;5.496;2023-08-30T09:40:20;100560.97;;;14.19;100.00
69630;BME280;56857;52.212;5.496;2023-08-30T09:42:46;100560.09;;;14.18;100.00
69630;BME280;56857;52.212;5.496;2023-08-30T09:45:24;100553.97;;;14.18;100.00
69630;BME280;56857;52.212;5.496;2023-08-30T09:47:49;100551.72;;;14.21;100.00
69630;BME280;56857;52.212;5.496;2023-08-30T09:50:19;100548.03;;;14.22;100.00
69630;BME280;56857;52.212;5.496;2023-08-30T09:52:48;100546.63;;;14.26;100.00
69630;BME280;56857;52.212;5.496;2023-08-30T09:55:14;100544.59;;;14.28;100.00
69630;BME280;56857;52.212;5.496;2023-08-30T09:57:42;100545.00;;;14.32;100.00
69630;BME280;56857;52.212;5.496;2023-08-30T10:00:08;100541.72;;;14.36;100.00
69630;BME280;56857;52.212;5.496;2023-08-30T10:02:33;100539.88;;;14.37;100.00
69630;BME280;56857;52.212;5.496;2023-08-30T10:04:59;100539.03;;;14.36;100.00
69630;BME280;56857;52.212;5.496;2023-08-30T10:07:25;100541.53;;;14.38;100.00
69630;BME280;56857;52.212;5.496;2023-08-30T10:09:51;100537.81;;;14.39;100.00
69630;BME280;56857;52.212;5.496;2023-08-30T10:12:16;100540.28;;;14.41;100.00
69630;BME280;56857;52.212;5.496;2023-08-30T10:14:42;100543.56;;;14.43;100.00
69630;BME280;56857;52.212;5.496;2023-08-30T10:17:09;100539.47;;;14.47;100.00
69630;BME280;56857;52.212;5.496;2023-08-30T10:19:41;100540.09;;;14.49;100.00
69630;BME280;56857;52.212;5.496;2023-08-30T10:22:07;100536.88;;;14.53;100.00
69630;BME280;56857;52.212;5.496;2023-08-30T10:24:37;100537.88;;;14.59;100.00
69630;BME280;56857;52.212;5.496;2023-08-30T10:27:05;100540.38;;;14.60;100.00
69630;BME280;56857;52.212;5.496;2023-08-30T10:29:34;100546.53;;;14.61;100.00
69630;BME280;56857;52.212;5.496;2023-08-30T10:32:04;100546.94;;;14.65;100.00
69630;BME280;56857;52.212;5.496;2023-08-30T10:34:32;100550.41;;;14.65;100.00
69630;BME280;56857;52.212;5.496;2023-08-30T10:36:59;100549.19;;;14.68;100.00
69630;BME280;56857;52.212;5.496;2023-08-30T10:39:39;100547.56;;;14.73;100.00
69630;BME280;56857;52.212;5.496;2023-08-30T10:42:13;100539.16;;;14.90;100.00
69630;BME280;56857;52.212;5.496;2023-08-30T10:44:52;100543.47;;;15.17;100.00
69630;BME280;56857;52.212;5.496;2023-08-30T10:49:49;100548.03;;;15.95;100.00
69630;BME280;56857;52.212;5.496;2023-08-30T10:52:15;100552.16;;;16.36;100.00
69630;BME280;56857;52.212;5.496;2023-08-30T10:54:40;100557.09;;;16.77;100.00
69630;BME280;56857;52.212;5.496;2023-08-30T10:57:17;100560.31;;;17.11;100.00
69630;BME280;56857;52.212;5.496;2023-08-30T11:02:37;100559.88;;;17.76;100.00
69630;BME280;56857;52.212;5.496;2023-08-30T11:05:06;100563.78;;;17.98;100.00
69630;BME280;56857;52.212;5.496;2023-08-30T11:07:32;100564.31;;;18.19;100.00
69630;BME280;56857;52.212;5.496;2023-08-30T11:09:58;100550.00;;;18.25;100.00
69630;BME280;56857;52.212;5.496;2023-08-30T11:12:23;100550.88;;;18.37;100.00
69630;BME280;56857;52.212;5.496;2023-08-30T11:14:49;100555.13;;;18.57;100.00
69630;BME280;56857;52.212;5.496;2023-08-30T11:17:17;100558.59;;;18.75;100.00
69630;BME280;56857;52.212;5.496;2023-08-30T11:19:44;100557.56;;;18.88;100.00
69630;BME280;56857;52.212;5.496;2023-08-30T11:22:09;100537.97;;;18.76;100.00
69630;BME280;56857;52.212;5.496;2023-08-30T11:24:35;100526.81;;;18.61;100.00
69630;BME280;56857;52.212;5.496;2023-08-30T11:27:00;100542.56;;;18.57;100.00
69630;BME280;56857;52.212;5.496;2023-08-30T11:29:29;100546.50;;;18.55;100.00
69630;BME280;56857;52.212;5.496;2023-08-30T11:31:54;100546.38;;;18.49;100.00
69630;BME280;56857;52.212;5.496;2023-08-30T11:34:21;100543.72;;;18.61;100.00
69630;BME280;56857;52.212;5.496;2023-08-30T11:36:46;100547.78;;;18.82;100.00
69630;BME280;56857;52.212;5.496;2023-08-30T11:39:13;100546.75;;;18.95;100.00
69630;BME280;56857;52.212;5.496;2023-08-30T11:41:38;100542.19;;;18.95;100.00
69630;BME280;56857;52.212;5.496;2023-08-30T11:44:04;100532.47;;;18.83;100.00
69630;BME280;56857;52.212;5.496;2023-08-30T11:46:29;100532.22;;;18.72;100.00
69630;BME280;56857;52.212;5.496;2023-08-30T11:48:55;100534.41;;;18.64;100.00
69630;BME280;56857;52.212;5.496;2023-08-30T11:51:20;100537.88;;;18.52;100.00
69630;BME280;56857;52.212;5.496;2023-08-30T11:53:46;100529.44;;;18.49;100.00
69630;BME280;56857;52.212;5.496;2023-08-30T11:56:13;100528.19;;;18.51;100.00
69630;BME280;56857;52.212;5.496;2023-08-30T11:58:38;100529.34;;;18.56;100.00
69630;BME280;56857;52.212;5.496;2023-08-30T12:01:04;100534.63;;;18.62;100.00
69630;BME280;56857;52.212;5.496;2023-08-30T12:03:31;100534.63;;;18.62;100.00
69630;BME280;56857;52.212;5.496;2023-08-30T12:05:57;100536.50;;;18.62;100.00
69630;BME280;56857;52.212;5.496;2023-08-30T12:08:30;100523.97;;;18.56;100.00
69630;BME280;56857;52.212;5.496;2023-08-30T12:10:56;100529.84;;;18.64;100.00
69630;BME280;56857;52.212;5.496;2023-08-30T12:13:32;100537.97;;;18.88;100.00
69630;BME280;56857;52.212;5.496;2023-08-30T12:15:59;100539.03;;;19.10;100.00
69630;BME280;56857;52.212;5.496;2023-08-30T12:18:43;100534.72;;;19.09;100.00
69630;BME280;56857;52.212;5.496;2023-08-30T12:21:08;100548.97;;;18.98;100.00
69630;BME280;56857;52.212;5.496;2023-08-30T12:23:34;100541.94;;;18.85;100.00
69630;BME280;56857;52.212;5.496;2023-08-30T12:28:28;100545.69;;;18.54;100.00
69630;BME280;56857;52.212;5.496;2023-08-30T12:30:54;100540.28;;;18.42;100.00
69630;BME280;56857;52.212;5.496;2023-08-30T12:33:20;100546.47;;;18.43;100.00
69630;BME280;56857;52.212;5.496;2023-08-30T12:35:45;100540.22;;;18.61;100.00
69630;BME280;56857;52.212;5.496;2023-08-30T12:38:11;100545.31;;;18.81;100.00
69630;BME280;56857;52.212;5.496;2023-08-30T12:40:36;100544.16;;;19.00;100.00
69630;BME280;56857;52.212;5.496;2023-08-30T12:43:01;100548.16;;;19.21;100.00
69630;BME280;56857;52.212;5.496;2023-08-30T12:45:27;100547.44;;;19.37;100.00
69630;BME280;56857;52.212;5.496;2023-08-30T12:47:52;100546.84;;;19.59;100.00
69630;BME280;56857;52.212;5.496;2023-08-30T12:50:17;100556.69;;;19.77;100.00
69630;BME280;56857;52.212;5.496;2023-08-30T12:52:43;100546.13;;;19.87;100.00
69630;BME280;56857;52.212;5.496;2023-08-30T12:55:08;100550.84;;;19.80;100.00
69630;BME280;56857;52.212;5.496;2023-08-30T12:57:34;100553.19;;;19.64;100.00
69630;BME280;56857;52.212;5.496;2023-08-30T12:59:59;100553.88;;;19.48;100.00
69630;BME280;56857;52.212;5.496;2023-08-30T13:02:24;100561.03;;;19.42;100.00
69630;BME280;56857;52.212;5.496;2023-08-30T13:04:49;100558.44;;;19.48;100.00
69630;BME280;56857;52.212;5.496;2023-08-30T13:07:15;100561.13;;;19.59;100.00
69630;BME280;56857;52.212;5.496;2023-08-30T13:09:40;100560.31;;;19.71;100.00